Time;durP1;ratioP1;P1;durP2;ratioP2;P2;SDS_P1;SDS_P2;PMS_P1;PMS_P2;Temp;Humidity;BMP_temperature;BMP_pressure;BME280_temperature;BME280_humidity;BME280_pressure;Samples;Min_cycle;Max_cycle;Signal;HPM_P1;HPM_P2
2023/06/04 00:00:35;;;;;;;0.10;0.10;;;16.20;99.90;;;;;;5048489;28;20182;-80
2023/06/04 00:03:01;;;;;;;0.10;0.10;;;16.20;99.90;;;;;;5047653;28;20265;-79
2023/06/04 00:05:26;;;;;;;0.10;0.10;;;16.20;99.90;;;;;;5048631;28;20221;-80
2023/06/04 00:07:52;;;;;;;0.10;0.10;;;16.30;99.90;;;;;;5048662;28;20725;-80
2023/06/04 00:10:18;;;;;;;0.10;0.10;;;16.20;99.90;;;;;;5047611;28;20524;-81
2023/06/04 00:12:45;;;;;;;0.20;0.20;;;16.10;99.90;;;;;;5048593;28;20206;-80
2023/06/04 00:15:12;;;;;;;0.10;0.10;;;16.10;99.90;;;;;;5049580;28;20215;-81
2023/06/04 00:17:38;;;;;;;0.10;0.10;;;16.00;99.90;;;;;;5049124;28;20177;-80
2023/06/04 00:20:04;;;;;;;0.10;0.10;;;16.00;99.90;;;;;;5048539;28;20755;-80
2023/06/04 00:22:29;;;;;;;0.07;0.07;;;16.00;99.90;;;;;;5048114;28;20185;-80
2023/06/04 00:24:55;;;;;;;0.10;0.10;;;16.00;99.90;;;;;;5047981;28;20220;-80
2023/06/04 00:27:20;;;;;;;0.10;0.10;;;15.90;99.90;;;;;;5047953;28;20678;-80
2023/06/04 00:29:46;;;;;;;0.10;0.10;;;15.90;99.90;;;;;;5048028;28;20651;-81
2023/06/04 00:32:11;;;;;;;0.10;0.10;;;15.90;99.90;;;;;;5047248;28;20204;-80
2023/06/04 00:34:37;;;;;;;0.10;0.10;;;16.00;99.90;;;;;;5047285;28;20683;-80
2023/06/04 00:37:02;;;;;;;0.10;0.10;;;15.90;99.90;;;;;;5047479;28;20244;-81
2023/06/04 00:39:29;;;;;;;0.10;0.10;;;15.90;99.90;;;;;;5047975;28;20247;-80
2023/06/04 00:41:54;;;;;;;0.10;0.10;;;15.80;99.90;;;;;;5047787;28;20201;-80
2023/06/04 00:44:21;;;;;;;0.10;0.10;;;15.80;99.90;;;;;;5047743;28;20567;-80
2023/06/04 00:46:47;;;;;;;0.10;0.10;;;15.80;99.90;;;;;;5047070;28;20708;-81
2023/06/04 00:49:13;;;;;;;0.10;0.10;;;15.70;99.90;;;;;;5048630;28;20189;-80
2023/06/04 00:51:38;;;;;;;0.40;0.40;;;15.70;99.90;;;;;;5047520;28;20209;-80
2023/06/04 00:54:08;;;;;;;0.10;0.10;;;15.70;99.90;;;;;;5048073;28;20193;-80
2023/06/04 00:56:37;;;;;;;0.10;0.10;;;15.70;99.90;;;;;;5047662;28;20271;-79
2023/06/04 00:59:03;;;;;;;0.10;0.10;;;15.70;99.90;;;;;;5046690;28;20269;-80
2023/06/04 01:01:40;;;;;;;0.10;0.10;;;15.70;99.90;;;;;;5048638;28;20182;-81
2023/06/04 01:04:12;;;;;;;0.10;0.10;;;15.80;99.90;;;;;;5048264;28;20205;-80
2023/06/04 01:06:45;;;;;;;0.10;0.10;;;15.80;99.90;;;;;;5055845;28;20217;-80
2023/06/04 01:09:11;;;;;;;0.10;0.10;;;15.80;99.90;;;;;;5049310;28;20182;-80
2023/06/04 01:11:39;;;;;;;0.10;0.10;;;15.70;99.90;;;;;;5046905;28;20292;-80
2023/06/04 01:14:08;;;;;;;0.10;0.10;;;15.70;99.90;;;;;;5048482;28;20174;-82
2023/06/04 01:16:41;;;;;;;0.00;0.00;;;15.70;99.90;;;;;;5048564;28;20204;-80
2023/06/04 01:19:20;;;;;;;0.10;0.10;;;15.80;99.90;;;;;;5047131;28;20261;-80
2023/06/04 01:21:50;;;;;;;0.10;0.10;;;15.80;99.90;;;;;;5046873;28;20183;-80
2023/06/04 01:24:21;;;;;;;0.10;0.10;;;15.70;99.90;;;;;;5047293;28;20234;-80
2023/06/04 01:26:47;;;;;;;0.10;0.10;;;15.60;99.90;;;;;;5046940;28;20235;-79
2023/06/04 01:29:13;;;;;;;0.10;0.10;;;15.60;99.90;;;;;;5047620;28;20273;-80
2023/06/04 01:31:40;;;;;;;0.10;0.10;;;15.50;99.90;;;;;;5046978;28;20342;-80
2023/06/04 01:34:08;;;;;;;0.10;0.10;;;15.40;99.90;;;;;;5048093;28;20254;-81
2023/06/04 01:36:33;;;;;;;0.10;0.10;;;15.40;99.90;;;;;;5046087;28;20233;-80
2023/06/04 01:39:00;;;;;;;0.10;0.10;;;15.40;99.90;;;;;;5049909;28;20205;-80
2023/06/04 01:41:26;;;;;;;0.10;0.10;;;15.30;99.90;;;;;;5051589;28;20786;-80
2023/06/04 01:43:51;;;;;;;0.10;0.10;;;15.30;99.90;;;;;;5052124;28;20205;-80
2023/06/04 01:46:17;;;;;;;0.10;0.10;;;15.30;99.90;;;;;;5051117;28;20251;-80
2023/06/04 01:48:42;;;;;;;0.10;0.10;;;15.20;99.90;;;;;;5052043;28;20635;-80
2023/06/04 01:51:08;;;;;;;0.10;0.10;;;15.10;99.90;;;;;;5050933;28;20762;-80
2023/06/04 01:53:33;;;;;;;0.10;0.10;;;15.10;99.90;;;;;;5051208;28;20189;-80
2023/06/04 01:55:59;;;;;;;0.10;0.10;;;15.10;99.90;;;;;;5051181;28;20201;-80
2023/06/04 01:58:26;;;;;;;0.10;0.10;;;15.00;99.90;;;;;;5051120;28;20333;-81
2023/06/04 02:00:52;;;;;;;0.10;0.10;;;14.90;99.90;;;;;;5050282;28;20192;-80
2023/06/04 02:03:18;;;;;;;0.10;0.10;;;14.80;99.90;;;;;;5051023;28;20185;-79
2023/06/04 02:05:46;;;;;;;0.10;0.10;;;14.70;99.90;;;;;;5050590;28;20228;-80
2023/06/04 02:08:12;;;;;;;0.10;0.10;;;14.60;99.90;;;;;;5050569;28;20262;-80
2023/06/04 02:10:37;;;;;;;0.10;0.10;;;14.60;99.90;;;;;;5051058;28;20212;-80
2023/06/04 02:13:03;;;;;;;0.10;0.10;;;14.50;99.90;;;;;;5048868;28;20185;-80
2023/06/04 02:15:30;;;;;;;0.10;0.10;;;14.50;99.90;;;;;;5050494;28;20205;-81
2023/06/04 02:17:58;;;;;;;0.10;0.10;;;14.40;99.90;;;;;;5051582;28;20519;-80
2023/06/04 02:20:27;;;;;;;0.10;0.10;;;14.40;99.90;;;;;;5050977;28;20226;-80
2023/06/04 02:22:54;;;;;;;0.10;0.10;;;14.40;99.90;;;;;;5050288;28;20646;-80
2023/06/04 02:25:20;;;;;;;0.10;0.10;;;14.40;99.90;;;;;;5051075;28;20208;-80
2023/06/04 02:27:46;;;;;;;0.10;0.10;;;14.30;99.90;;;;;;5049960;28;20182;-80
2023/06/04 02:30:11;;;;;;;0.10;0.10;;;14.30;99.90;;;;;;5049734;28;20220;-80
2023/06/04 02:32:37;;;;;;;0.10;0.10;;;14.40;99.90;;;;;;5049887;28;20678;-81
2023/06/04 02:35:03;;;;;;;0.10;0.10;;;14.40;99.90;;;;;;5050034;28;20201;-81
2023/06/04 02:37:30;;;;;;;0.10;0.10;;;14.50;99.90;;;;;;5050906;28;20216;-81
2023/06/04 02:39:55;;;;;;;0.10;0.10;;;14.50;99.90;;;;;;5050123;28;20181;-80
2023/06/04 02:42:21;;;;;;;0.10;0.10;;;14.50;99.90;;;;;;5051248;28;20523;-82
2023/06/04 02:44:46;;;;;;;0.10;0.10;;;14.50;99.90;;;;;;5050345;28;20210;-80
2023/06/04 02:47:12;;;;;;;0.10;0.10;;;14.50;99.90;;;;;;5049858;28;20186;-81
2023/06/04 02:49:37;;;;;;;0.10;0.10;;;14.50;99.90;;;;;;5049197;28;20185;-81
2023/06/04 02:52:03;;;;;;;0.10;0.10;;;14.60;99.90;;;;;;5050430;28;20631;-80
2023/06/04 02:54:29;;;;;;;0.10;0.10;;;14.50;99.90;;;;;;5049666;28;20615;-81
2023/06/04 02:56:54;;;;;;;0.10;0.10;;;14.50;99.90;;;;;;5050495;28;20181;-80
2023/06/04 02:59:20;;;;;;;0.10;0.10;;;14.60;99.90;;;;;;5050988;28;20252;-81
2023/06/04 03:01:45;;;;;;;0.10;0.10;;;14.60;99.90;;;;;;5049740;28;20557;-80
2023/06/04 03:04:15;;;;;;;0.10;0.10;;;14.60;99.90;;;;;;5049664;28;20551;-81
2023/06/04 03:06:44;;;;;;;0.10;0.10;;;14.60;99.90;;;;;;5049913;28;20255;-80
2023/06/04 03:09:10;;;;;;;0.10;0.10;;;14.70;99.90;;;;;;5048536;28;20246;-81
2023/06/04 03:11:36;;;;;;;0.10;0.10;;;14.60;99.90;;;;;;5049460;28;20210;-81
2023/06/04 03:14:01;;;;;;;0.10;0.10;;;14.60;99.90;;;;;;5049257;28;20184;-81
2023/06/04 03:16:27;;;;;;;0.10;0.10;;;14.60;99.90;;;;;;5050786;28;20580;-81
2023/06/04 03:18:52;;;;;;;0.10;0.10;;;14.60;99.90;;;;;;5049684;28;20174;-80
2023/06/04 03:21:18;;;;;;;0.10;0.10;;;14.50;99.90;;;;;;5051060;28;20186;-81
2023/06/04 03:23:43;;;;;;;0.10;0.10;;;14.60;99.90;;;;;;5049584;28;20562;-81
2023/06/04 03:26:12;;;;;;;0.10;0.10;;;14.60;99.90;;;;;;5049579;28;20582;-80
2023/06/04 03:28:38;;;;;;;0.10;0.10;;;14.70;99.90;;;;;;5050647;28;20189;-80
2023/06/04 03:31:03;;;;;;;0.10;0.10;;;14.70;99.90;;;;;;5049522;28;20802;-80
2023/06/04 03:33:29;;;;;;;0.00;0.00;;;14.60;99.90;;;;;;5046913;28;20197;-80
2023/06/04 03:35:58;;;;;;;0.10;0.10;;;14.60;99.90;;;;;;5048094;28;20209;-81
2023/06/04 03:38:27;;;;;;;0.00;0.00;;;14.70;99.90;;;;;;5049709;28;20185;-81
2023/06/04 03:40:52;;;;;;;0.10;0.10;;;15.20;99.90;;;;;;5048834;28;20238;-80
2023/06/04 03:43:19;;;;;;;0.10;0.10;;;15.70;99.90;;;;;;5048465;28;20686;-80
2023/06/04 03:45:44;;;;;;;0.10;0.10;;;16.00;99.90;;;;;;5048693;28;20216;-80
2023/06/04 03:48:10;;;;;;;0.10;0.10;;;16.40;99.90;;;;;;5048734;28;20177;-80
2023/06/04 03:50:36;;;;;;;0.10;0.10;;;16.80;99.90;;;;;;5048307;28;20205;-80
2023/06/04 03:53:04;;;;;;;0.10;0.10;;;17.10;99.90;;;;;;5050054;28;20189;-80
2023/06/04 03:55:31;;;;;;;0.10;0.10;;;17.20;99.90;;;;;;5048145;28;20288;-80
2023/06/04 03:57:57;;;;;;;0.10;0.10;;;17.70;99.90;;;;;;5048656;28;20553;-82
2023/06/04 04:00:23;;;;;;;0.10;0.10;;;18.00;99.90;;;;;;5048170;28;20178;-80
2023/06/04 04:02:49;;;;;;;0.10;0.10;;;18.40;99.90;;;;;;5047831;28;20801;-80
2023/06/04 04:05:15;;;;;;;0.10;0.10;;;18.60;99.90;;;;;;5047874;28;20217;-81
2023/06/04 04:07:40;;;;;;;0.10;0.10;;;18.70;99.90;;;;;;5048224;28;20181;-80
2023/06/04 04:10:06;;;;;;;0.10;0.10;;;19.50;99.90;;;;;;5049490;28;20182;-80
2023/06/04 04:12:32;;;;;;;0.10;0.10;;;20.10;99.90;;;;;;5048583;28;20213;-81
2023/06/04 04:14:58;;;;;;;0.10;0.10;;;19.90;99.90;;;;;;5047665;28;20263;-80
2023/06/04 04:17:23;;;;;;;0.10;0.10;;;19.30;99.90;;;;;;5047781;28;20186;-80
2023/06/04 04:19:49;;;;;;;0.10;0.10;;;19.30;99.90;;;;;;5049576;28;20674;-80
2023/06/04 04:22:17;;;;;;;0.10;0.10;;;18.80;99.90;;;;;;5047823;28;20251;-81
2023/06/04 04:24:43;;;;;;;0.10;0.10;;;18.10;99.90;;;;;;5048702;28;20202;-80
2023/06/04 04:27:10;;;;;;;0.10;0.10;;;18.30;99.90;;;;;;5047179;28;20182;-79
2023/06/04 04:29:36;;;;;;;0.77;0.77;;;18.40;99.90;;;;;;5047335;28;20189;-80
2023/06/04 04:32:10;;;;;;;0.10;0.10;;;18.10;99.90;;;;;;5047448;28;20209;-80
2023/06/04 04:34:37;;;;;;;0.10;0.10;;;18.20;99.90;;;;;;5047428;28;20196;-81
2023/06/04 04:37:03;;;;;;;0.10;0.10;;;18.00;99.90;;;;;;5047261;28;20186;-80
2023/06/04 04:39:29;;;;;;;0.10;0.10;;;18.00;99.90;;;;;;5047402;28;20208;-80
2023/06/04 04:41:55;;;;;;;0.10;0.10;;;17.50;99.90;;;;;;5046689;28;20188;-80
2023/06/04 04:44:20;;;;;;;0.10;0.10;;;17.10;99.90;;;;;;5049225;28;20961;-81
2023/06/04 04:46:48;;;;;;;0.10;0.10;;;16.80;99.90;;;;;;5039584;28;20272;-80
2023/06/04 04:49:13;;;;;;;0.10;0.10;;;16.90;99.90;;;;;;5047080;28;20182;-81
2023/06/04 04:51:39;;;;;;;0.10;0.10;;;17.00;99.90;;;;;;5047643;28;20224;-80
2023/06/04 04:54:05;;;;;;;0.10;0.10;;;16.80;99.90;;;;;;5048123;28;20276;-80
2023/06/04 04:56:34;;;;;;;0.10;0.10;;;16.90;99.90;;;;;;5048398;28;20206;-80
2023/06/04 04:59:00;;;;;;;0.10;0.10;;;16.70;99.90;;;;;;5049004;28;20208;-80
2023/06/04 05:01:26;;;;;;;0.10;0.10;;;16.50;99.90;;;;;;5048066;28;20284;-80
2023/06/04 05:03:51;;;;;;;0.10;0.10;;;16.70;99.90;;;;;;5047255;28;20276;-80
2023/06/04 05:06:17;;;;;;;0.10;0.10;;;16.50;99.90;;;;;;5046606;28;20248;-80
2023/06/04 05:08:42;;;;;;;0.10;0.10;;;16.50;99.90;;;;;;5047100;28;20233;-80
2023/06/04 05:11:09;;;;;;;0.10;0.10;;;16.50;99.90;;;;;;5047264;28;20206;-80
2023/06/04 05:13:34;;;;;;;0.10;0.10;;;16.10;99.90;;;;;;5053476;28;20188;-80
2023/06/04 05:16:06;;;;;;;0.10;0.10;;;16.00;99.90;;;;;;5054240;28;20205;-80
2023/06/04 05:18:32;;;;;;;0.10;0.10;;;16.00;99.90;;;;;;5054402;28;20177;-80
2023/06/04 05:20:59;;;;;;;0.10;0.10;;;16.10;99.90;;;;;;5054063;28;20189;-80
2023/06/04 05:23:26;;;;;;;0.10;0.10;;;16.40;99.90;;;;;;5055530;28;20185;-80
2023/06/04 05:25:52;;;;;;;0.10;0.10;;;16.40;99.90;;;;;;5055564;28;20201;-80
2023/06/04 05:28:18;;;;;;;0.10;0.10;;;16.50;99.90;;;;;;5056017;28;20672;-80
2023/06/04 05:30:43;;;;;;;0.10;0.10;;;16.70;99.90;;;;;;5055462;28;20217;-80
2023/06/04 05:33:17;;;;;;;0.10;0.10;;;16.60;99.90;;;;;;5054039;28;20693;-80
2023/06/04 05:35:48;;;;;;;0.10;0.10;;;16.60;99.90;;;;;;5054530;28;20205;-80
2023/06/04 05:38:18;;;;;;;0.10;0.10;;;16.90;99.90;;;;;;5055722;28;20181;-80
2023/06/04 05:40:45;;;;;;;0.10;0.10;;;17.00;99.90;;;;;;5053862;28;20176;-80
2023/06/04 05:43:10;;;;;;;0.10;0.10;;;17.10;99.90;;;;;;5061293;28;20174;-80
2023/06/04 05:45:36;;;;;;;0.10;0.10;;;17.20;99.90;;;;;;5055087;28;20201;-80
2023/06/04 05:48:02;;;;;;;0.10;0.10;;;17.50;99.90;;;;;;5054435;28;20222;-80
2023/06/04 05:50:28;;;;;;;0.10;0.10;;;17.60;99.90;;;;;;5053489;28;20192;-80
2023/06/04 05:52:53;;;;;;;0.10;0.10;;;17.70;99.90;;;;;;5053508;28;20187;-80
2023/06/04 05:55:19;;;;;;;0.10;0.10;;;17.70;99.90;;;;;;5055578;28;20229;-80
2023/06/04 05:57:45;;;;;;;0.10;0.10;;;17.70;99.90;;;;;;5054104;28;20280;-80
2023/06/04 06:00:11;;;;;;;0.10;0.10;;;17.50;99.90;;;;;;5055110;28;20188;-80
2023/06/04 06:02:38;;;;;;;0.10;0.10;;;17.50;99.90;;;;;;5056312;28;20239;-80
2023/06/04 06:05:06;;;;;;;0.10;0.10;;;17.60;99.90;;;;;;5054921;28;20217;-80
2023/06/04 06:07:32;;;;;;;0.10;0.10;;;17.80;99.90;;;;;;5053785;28;20204;-80
2023/06/04 06:09:57;;;;;;;0.10;0.10;;;18.20;99.90;;;;;;5053466;28;21211;-80
2023/06/04 06:12:23;;;;;;;0.10;0.10;;;18.10;99.90;;;;;;5054995;28;20209;-80
2023/06/04 06:14:49;;;;;;;0.10;0.10;;;18.00;99.90;;;;;;5053902;28;20714;-80
2023/06/04 06:17:14;;;;;;;0.10;0.10;;;18.00;99.90;;;;;;5055187;28;20204;-80
2023/06/04 06:19:40;;;;;;;0.10;0.10;;;18.10;99.90;;;;;;5055381;28;20192;-80
2023/06/04 06:22:05;;;;;;;0.10;0.10;;;18.10;99.90;;;;;;5053165;28;20183;-81
2023/06/04 06:24:31;;;;;;;0.10;0.10;;;18.20;99.90;;;;;;5052769;28;20184;-80
2023/06/04 06:26:56;;;;;;;0.10;0.10;;;18.50;99.90;;;;;;5051435;28;20266;-80
2023/06/04 06:29:22;;;;;;;0.10;0.10;;;18.50;99.90;;;;;;5051608;28;20196;-80
2023/06/04 06:31:47;;;;;;;0.10;0.10;;;18.60;99.90;;;;;;5049599;28;20300;-80
2023/06/04 06:34:13;;;;;;;0.10;0.10;;;18.50;99.90;;;;;;5052367;28;20261;-81
2023/06/04 06:36:39;;;;;;;0.10;0.10;;;18.60;99.90;;;;;;5050421;28;20756;-80
2023/06/04 06:39:04;;;;;;;0.10;0.10;;;18.40;99.90;;;;;;5051130;28;20184;-80
2023/06/04 06:41:33;;;;;;;0.10;0.10;;;18.40;99.90;;;;;;5051263;28;20245;-81
2023/06/04 06:43:59;;;;;;;0.10;0.10;;;18.60;99.90;;;;;;5051257;28;20185;-80
2023/06/04 06:46:24;;;;;;;0.10;0.10;;;18.80;99.90;;;;;;5049438;28;20342;-81
2023/06/04 06:48:50;;;;;;;0.10;0.10;;;18.70;99.90;;;;;;5050179;28;20181;-80
2023/06/04 06:51:16;;;;;;;0.10;0.10;;;18.90;99.90;;;;;;5049311;28;20251;-80
2023/06/04 06:53:42;;;;;;;0.10;0.10;;;19.00;99.90;;;;;;5049375;28;20638;-81
2023/06/04 06:56:08;;;;;;;0.10;0.10;;;19.10;99.90;;;;;;5049887;28;20779;-81
2023/06/04 06:58:34;;;;;;;0.10;0.10;;;19.20;99.90;;;;;;5051551;28;20210;-80
2023/06/04 07:01:00;;;;;;;0.10;0.10;;;19.20;99.90;;;;;;5048864;28;20265;-80
2023/06/04 07:03:26;;;;;;;0.10;0.10;;;19.30;99.90;;;;;;5049438;28;20182;-81
2023/06/04 07:05:52;;;;;;;0.10;0.10;;;19.30;99.90;;;;;;5048242;28;20705;-81
2023/06/04 07:08:17;;;;;;;0.10;0.10;;;19.70;99.90;;;;;;5049958;28;20227;-80
2023/06/04 07:10:43;;;;;;;0.10;0.10;;;19.80;99.90;;;;;;5049563;28;20229;-80
2023/06/04 07:13:08;;;;;;;0.10;0.10;;;19.90;99.90;;;;;;5050000;28;20176;-81
2023/06/04 07:15:34;;;;;;;0.10;0.10;;;19.90;99.90;;;;;;5049629;28;20204;-81
2023/06/04 07:18:00;;;;;;;0.10;0.10;;;19.80;99.90;;;;;;5049356;28;20244;-80
2023/06/04 07:20:25;;;;;;;0.10;0.10;;;19.70;99.90;;;;;;5049907;28;20185;-80
2023/06/04 07:22:51;;;;;;;0.10;0.10;;;19.90;99.90;;;;;;5049657;28;20190;-80
2023/06/04 07:25:16;;;;;;;0.10;0.10;;;19.80;99.90;;;;;;5049446;28;20206;-81
2023/06/04 07:27:42;;;;;;;0.10;0.10;;;19.90;99.90;;;;;;5049374;28;20197;-81
2023/06/04 07:30:09;;;;;;;0.10;0.10;;;19.70;99.90;;;;;;5050941;28;20178;-80
2023/06/04 07:32:35;;;;;;;0.10;0.10;;;20.00;99.90;;;;;;5049161;28;20213;-80
2023/06/04 07:35:01;;;;;;;0.10;0.10;;;19.90;99.90;;;;;;5049911;28;20193;-80
2023/06/04 07:37:27;;;;;;;0.10;0.10;;;20.10;99.90;;;;;;5049973;28;20250;-81
2023/06/04 07:39:52;;;;;;;0.10;0.10;;;20.40;99.90;;;;;;5049367;28;20332;-80
2023/06/04 07:42:18;;;;;;;0.10;0.10;;;20.30;99.90;;;;;;5049159;28;20200;-81
2023/06/04 07:44:43;;;;;;;0.10;0.10;;;20.40;99.90;;;;;;5046549;28;20202;-81
2023/06/04 07:47:09;;;;;;;0.10;0.10;;;20.50;99.90;;;;;;5047548;28;20205;-81
2023/06/04 07:49:34;;;;;;;0.10;0.10;;;20.50;99.90;;;;;;5047233;28;20719;-81
2023/06/04 07:52:00;;;;;;;0.10;0.10;;;20.50;99.90;;;;;;5046055;28;20316;-80
2023/06/04 07:54:26;;;;;;;0.23;0.23;;;20.70;99.90;;;;;;5046372;28;20177;-80
2023/06/04 07:56:55;;;;;;;0.10;0.10;;;20.80;99.90;;;;;;5045680;28;20181;-81
2023/06/04 07:59:24;;;;;;;0.10;0.10;;;21.10;99.90;;;;;;5045464;28;20235;-81
2023/06/04 08:01:51;;;;;;;0.10;0.10;;;20.80;99.90;;;;;;5045089;28;20667;-82
2023/06/04 08:04:17;;;;;;;0.10;0.10;;;21.00;99.90;;;;;;5046832;28;20178;-81
2023/06/04 08:06:44;;;;;;;0.10;0.10;;;20.50;99.90;;;;;;5046422;28;20217;-83
2023/06/04 08:09:11;;;;;;;0.10;0.10;;;20.70;99.90;;;;;;5045101;28;20521;-81
2023/06/04 08:11:36;;;;;;;0.10;0.10;;;21.00;99.90;;;;;;5044658;28;20224;-81
2023/06/04 08:14:02;;;;;;;0.10;0.10;;;21.00;99.90;;;;;;5045041;28;20181;-81
2023/06/04 08:16:28;;;;;;;0.10;0.10;;;21.20;99.90;;;;;;5044309;28;20201;-81
2023/06/04 08:18:53;;;;;;;0.10;0.10;;;21.30;99.90;;;;;;5045161;28;20182;-80
2023/06/04 08:21:26;;;;;;;0.10;0.10;;;21.10;99.90;;;;;;5044607;28;21055;-82
2023/06/04 08:23:52;;;;;;;0.10;0.10;;;21.40;99.90;;;;;;5043956;28;20185;-81
2023/06/04 08:26:19;;;;;;;0.10;0.10;;;21.50;99.90;;;;;;5044573;28;20263;-82
2023/06/04 08:28:47;;;;;;;0.10;0.10;;;21.50;99.90;;;;;;5044561;28;20284;-81
2023/06/04 08:31:13;;;;;;;0.10;0.10;;;21.90;99.90;;;;;;5044473;28;20288;-80
2023/06/04 08:33:39;;;;;;;0.10;0.10;;;21.40;99.90;;;;;;5043923;28;20290;-81
2023/06/04 08:36:05;;;;;;;0.10;0.10;;;21.30;99.90;;;;;;5044463;28;20598;-83
2023/06/04 08:38:30;;;;;;;0.10;0.10;;;21.30;99.90;;;;;;5044294;28;20243;-81
2023/06/04 08:41:02;;;;;;;0.10;0.10;;;21.40;99.90;;;;;;5043394;28;20191;-82
2023/06/04 08:43:29;;;;;;;0.10;0.10;;;21.70;99.90;;;;;;5045451;28;20196;-81
2023/06/04 08:46:01;;;;;;;0.10;0.10;;;21.90;99.90;;;;;;5052763;28;20598;-81
2023/06/04 08:48:29;;;;;;;0.10;0.10;;;21.60;99.90;;;;;;5045167;28;20186;-81
2023/06/04 08:50:59;;;;;;;0.10;0.10;;;21.50;99.90;;;;;;5044676;28;20216;-81
2023/06/04 08:53:25;;;;;;;0.10;0.10;;;22.20;99.90;;;;;;5046557;28;20490;-80
2023/06/04 08:55:53;;;;;;;0.10;0.10;;;22.30;99.90;;;;;;5047346;28;20647;-81
2023/06/04 08:58:19;;;;;;;0.10;0.10;;;22.90;99.90;;;;;;5045983;28;20236;-81
2023/06/04 09:00:45;;;;;;;0.10;0.10;;;22.40;99.90;;;;;;5046914;28;20654;-81
2023/06/04 09:03:12;;;;;;;0.10;0.10;;;22.70;99.90;;;;;;5047665;28;20182;-80
2023/06/04 09:05:39;;;;;;;0.10;0.10;;;22.80;99.90;;;;;;5045740;28;20232;-80
2023/06/04 09:08:08;;;;;;;0.10;0.10;;;22.40;99.90;;;;;;5046622;28;20182;-81
2023/06/04 09:10:35;;;;;;;0.10;0.10;;;22.50;99.90;;;;;;5046731;28;20188;-81
2023/06/04 09:13:03;;;;;;;0.10;0.10;;;22.20;99.90;;;;;;5046686;28;20174;-81
2023/06/04 09:15:28;;;;;;;0.10;0.10;;;22.30;99.90;;;;;;5045722;28;20289;-80
2023/06/04 09:17:54;;;;;;;0.10;0.10;;;22.40;99.90;;;;;;5046464;28;20356;-81
2023/06/04 09:20:24;;;;;;;0.20;0.20;;;22.40;99.90;;;;;;5046245;28;20173;-81
2023/06/04 09:22:50;;;;;;;0.10;0.10;;;22.50;99.90;;;;;;5045949;28;20182;-82
2023/06/04 09:25:26;;;;;;;0.10;0.10;;;22.40;99.90;;;;;;5045434;28;20616;-81
2023/06/04 09:27:53;;;;;;;0.10;0.10;;;22.40;99.90;;;;;;5044027;28;20239;-81
2023/06/04 09:30:18;;;;;;;0.10;0.10;;;22.30;99.90;;;;;;5044792;28;20180;-80
2023/06/04 09:32:44;;;;;;;0.10;0.10;;;22.50;99.90;;;;;;5052590;28;20201;-81
2023/06/04 09:35:19;;;;;;;0.10;0.10;;;22.90;99.90;;;;;;5045720;28;20225;-80
2023/06/04 09:38:05;;;;;;;0.10;0.10;;;22.70;99.90;;;;;;5044795;28;20327;-81
2023/06/04 09:40:37;;;;;;;0.10;0.10;;;23.20;99.90;;;;;;5045032;28;20239;-82
2023/06/04 09:43:03;;;;;;;0.10;0.10;;;22.60;99.90;;;;;;5045187;28;20200;-80
2023/06/04 09:45:30;;;;;;;0.10;0.10;;;22.70;99.90;;;;;;5043729;28;21068;-81
2023/06/04 09:47:56;;;;;;;0.10;0.10;;;23.10;99.90;;;;;;5044110;28;20177;-82
2023/06/04 09:50:26;;;;;;;0.10;0.10;;;23.60;99.90;;;;;;5045203;28;20192;-81
2023/06/04 09:52:52;;;;;;;0.10;0.10;;;24.00;99.90;;;;;;5044254;28;20212;-81
2023/06/04 09:55:20;;;;;;;0.10;0.10;;;23.70;99.90;;;;;;5044493;28;20283;-83
2023/06/04 09:57:49;;;;;;;0.10;0.10;;;23.10;99.90;;;;;;5045574;28;20558;-81
2023/06/04 10:00:23;;;;;;;0.10;0.10;;;23.20;99.90;;;;;;5046006;28;20256;-82
2023/06/04 10:02:54;;;;;;;0.10;0.10;;;23.30;99.90;;;;;;5048917;28;20212;-80
2023/06/04 10:05:21;;;;;;;0.10;0.10;;;23.10;99.90;;;;;;5049090;28;20233;-81
2023/06/04 10:07:50;;;;;;;0.10;0.10;;;22.90;99.90;;;;;;5047412;28;20188;-82
2023/06/04 10:10:19;;;;;;;0.10;0.10;;;23.00;99.90;;;;;;5047486;28;20174;-80
2023/06/04 10:12:49;;;;;;;0.10;0.10;;;23.00;99.90;;;;;;5047218;28;20520;-82
2023/06/04 10:15:17;;;;;;;0.10;0.10;;;22.90;99.90;;;;;;5050453;28;20681;-82
2023/06/04 10:17:43;;;;;;;0.10;0.10;;;23.20;99.90;;;;;;5050719;28;21004;-82
2023/06/04 10:20:10;;;;;;;0.10;0.10;;;23.50;99.90;;;;;;5049913;28;20546;-81
2023/06/04 10:22:37;;;;;;;0.10;0.10;;;23.20;99.90;;;;;;5048171;28;20598;-80
2023/06/04 10:25:04;;;;;;;0.10;0.10;;;23.10;99.90;;;;;;5049136;28;20193;-81
2023/06/04 10:27:36;;;;;;;0.10;0.10;;;23.30;99.90;;;;;;5046337;28;20193;-81
2023/06/04 10:30:03;;;;;;;0.10;0.10;;;23.30;99.90;;;;;;5047867;28;20216;-83
2023/06/04 10:32:29;;;;;;;0.10;0.10;;;23.10;99.90;;;;;;5047476;28;20205;-81
2023/06/04 10:34:55;;;;;;;0.10;0.10;;;22.90;99.90;;;;;;5048258;28;20209;-81
2023/06/04 10:37:26;;;;;;;0.10;0.10;;;23.10;99.90;;;;;;5049491;28;20281;-81
2023/06/04 10:39:55;;;;;;;0.10;0.10;;;23.40;99.90;;;;;;5047476;28;20193;-81
2023/06/04 10:42:22;;;;;;;0.10;0.10;;;23.40;99.90;;;;;;5046838;28;20544;-82
2023/06/04 10:44:50;;;;;;;0.10;0.10;;;23.50;99.90;;;;;;5048717;28;20193;-81
2023/06/04 10:47:23;;;;;;;0.10;0.10;;;23.20;99.90;;;;;;5046646;28;20177;-81
2023/06/04 10:49:53;;;;;;;0.10;0.10;;;23.40;99.90;;;;;;5046230;28;20251;-80
2023/06/04 10:52:19;;;;;;;0.10;0.10;;;23.60;99.90;;;;;;5046096;28;20225;-79
2023/06/04 10:54:48;;;;;;;0.10;0.10;;;23.60;99.90;;;;;;5047437;28;20236;-80
2023/06/04 10:57:18;;;;;;;0.10;0.10;;;23.70;99.90;;;;;;5047399;28;20170;-80
2023/06/04 11:00:00;;;;;;;0.10;0.10;;;23.70;99.90;;;;;;5045983;28;20643;-81
2023/06/04 11:02:26;;;;;;;0.10;0.10;;;23.90;99.90;;;;;;5045987;28;20188;-81
2023/06/04 11:05:05;;;;;;;0.10;0.10;;;23.70;99.90;;;;;;5045572;28;20201;-81
2023/06/04 11:07:43;;;;;;;0.10;0.10;;;23.60;99.90;;;;;;5047248;28;20177;-83
2023/06/04 11:10:10;;;;;;;0.10;0.10;;;24.00;99.90;;;;;;5045729;28;20966;-83
2023/06/04 11:12:53;;;;;;;0.10;0.10;;;23.60;99.90;;;;;;5044881;28;20197;-83
2023/06/04 11:15:18;;;;;;;0.10;0.10;;;24.10;99.90;;;;;;5045807;28;20690;-83
2023/06/04 11:17:51;;;;;;;0.10;0.10;;;23.60;99.90;;;;;;5045711;28;20185;-83
2023/06/04 11:20:21;;;;;;;0.10;0.10;;;23.80;99.90;;;;;;5045836;28;20319;-83
2023/06/04 11:22:59;;;;;;;0.10;0.10;;;24.40;99.90;;;;;;5047060;28;20658;-83
2023/06/04 11:25:26;;;;;;;0.10;0.10;;;24.00;99.90;;;;;;5045264;28;20214;-83
2023/06/04 11:27:55;;;;;;;0.10;0.10;;;23.90;99.90;;;;;;5045647;28;20588;-83
2023/06/04 11:30:21;;;;;;;0.10;0.10;;;23.80;99.90;;;;;;5046245;28;20763;-83
2023/06/04 11:32:47;;;;;;;0.10;0.10;;;23.80;99.90;;;;;;5044702;28;20299;-81
2023/06/04 11:35:12;;;;;;;0.10;0.10;;;23.80;99.90;;;;;;5044317;28;20221;-80
2023/06/04 11:37:39;;;;;;;0.10;0.10;;;23.80;99.90;;;;;;5044986;28;20911;-80
2023/06/04 11:40:18;;;;;;;0.10;0.10;;;23.70;99.90;;;;;;5046378;28;20281;-79
2023/06/04 11:42:46;;;;;;;0.77;0.77;;;23.80;99.90;;;;;;5045260;28;20216;-80
2023/06/04 11:45:14;;;;;;;0.10;0.10;;;23.50;99.90;;;;;;5045218;28;20697;-81
2023/06/04 11:47:44;;;;;;;0.10;0.10;;;23.90;99.90;;;;;;5044443;28;20280;-80
2023/06/04 11:50:10;;;;;;;0.10;0.10;;;24.10;99.90;;;;;;5044910;28;20181;-81
2023/06/04 11:52:36;;;;;;;0.10;0.10;;;23.80;99.90;;;;;;5044902;28;20307;-82
2023/06/04 11:55:02;;;;;;;0.10;0.10;;;24.00;99.90;;;;;;5045966;28;21015;-83
2023/06/04 11:57:29;;;;;;;0.10;0.10;;;24.60;99.90;;;;;;5046166;28;20280;-84
2023/06/04 11:59:55;;;;;;;0.10;0.10;;;24.30;99.90;;;;;;5044934;28;20209;-83
2023/06/04 12:02:20;;;;;;;0.10;0.10;;;24.30;99.90;;;;;;5045119;28;20212;-84
2023/06/04 12:04:46;;;;;;;0.10;0.10;;;24.80;99.90;;;;;;5047654;28;20662;-84
2023/06/04 12:07:11;;;;;;;0.10;0.10;;;24.80;99.90;;;;;;5047899;28;20181;-82
2023/06/04 12:09:39;;;;;;;0.10;0.10;;;24.30;99.90;;;;;;5046850;28;20178;-82
2023/06/04 12:12:09;;;;;;;0.60;0.60;;;24.40;99.90;;;;;;5045362;28;20205;-83
2023/06/04 12:14:35;;;;;;;0.10;0.10;;;24.30;99.90;;;;;;5044659;28;20722;-83
2023/06/04 12:17:05;;;;;;;0.10;0.10;;;24.10;99.90;;;;;;5045275;28;20260;-82
2023/06/04 12:19:31;;;;;;;0.10;0.10;;;24.10;99.90;;;;;;5046036;28;20269;-83
2023/06/04 12:22:05;;;;;;;0.10;0.10;;;24.60;99.90;;;;;;5044347;28;20253;-83
2023/06/04 12:24:35;;;;;;;0.10;0.10;;;25.00;99.90;;;;;;5044424;28;20184;-83
2023/06/04 12:27:03;;;;;;;0.10;0.10;;;24.90;99.90;;;;;;5045843;28;20173;-83
2023/06/04 12:29:28;;;;;;;0.10;0.10;;;24.60;99.90;;;;;;5046241;28;20181;-83
2023/06/04 12:32:08;;;;;;;0.10;0.10;;;25.00;99.90;;;;;;5044533;28;20550;-84
2023/06/04 12:34:40;;;;;;;0.10;0.10;;;24.90;99.90;;;;;;5045757;28;20200;-84
2023/06/04 12:37:07;;;;;;;0.10;0.10;;;24.20;99.90;;;;;;5044544;28;20277;-83
2023/06/04 12:39:33;;;;;;;0.10;0.10;;;24.40;99.90;;;;;;5044131;28;20174;-84
2023/06/04 12:41:59;;;;;;;0.10;0.10;;;24.40;99.90;;;;;;5046068;28;20186;-83
2023/06/04 12:44:25;;;;;;;0.10;0.10;;;24.60;99.90;;;;;;5045345;28;20201;-83
2023/06/04 12:46:50;;;;;;;0.10;0.10;;;25.00;99.90;;;;;;5045217;28;20185;-82